sensor_id;sensor_type;location;lat;lon;timestamp;temperature;humidity
11989;DHT22;6054;50.966;7.094;2022-09-09T00:01:23;26.60;49.30
11989;DHT22;6054;50.966;7.094;2022-09-09T00:04:00;26.30;49.70
11989;DHT22;6054;50.966;7.094;2022-09-09T00:06:31;26.30;49.80
11989;DHT22;6054;50.966;7.094;2022-09-09T00:09:04;26.20;49.70
11989;DHT22;6054;50.966;7.094;2022-09-09T00:11:39;26.30;49.60
11989;DHT22;6054;50.966;7.094;2022-09-09T00:14:20;26.30;49.70
11989;DHT22;6054;50.966;7.094;2022-09-09T00:16:55;26.20;49.40
11989;DHT22;6054;50.966;7.094;2022-09-09T00:19:36;26.30;50.00
11989;DHT22;6054;50.966;7.094;2022-09-09T00:22:15;26.30;49.00
11989;DHT22;6054;50.966;7.094;2022-09-09T00:24:44;26.30;49.90
11989;DHT22;6054;50.966;7.094;2022-09-09T00:27:19;26.30;49.60
11989;DHT22;6054;50.966;7.094;2022-09-09T00:30:11;26.40;50.10
11989;DHT22;6054;50.966;7.094;2022-09-09T00:32:40;26.20;50.00
11989;DHT22;6054;50.966;7.094;2022-09-09T00:35:16;26.10;48.80
11989;DHT22;6054;50.966;7.094;2022-09-09T00:37:44;26.10;49.80
11989;DHT22;6054;50.966;7.094;2022-09-09T00:40:22;26.10;49.70
11989;DHT22;6054;50.966;7.094;2022-09-09T00:42:54;26.10;50.00
11989;DHT22;6054;50.966;7.094;2022-09-09T00:45:44;26.30;50.10
11989;DHT22;6054;50.966;7.094;2022-09-09T00:48:14;26.00;49.80
11989;DHT22;6054;50.966;7.094;2022-09-09T00:50:46;26.00;48.70
11989;DHT22;6054;50.966;7.094;2022-09-09T00:53:22;26.00;49.90
11989;DHT22;6054;50.966;7.094;2022-09-09T00:55:56;26.20;50.10
11989;DHT22;6054;50.966;7.094;2022-09-09T00:58:26;26.00;49.80
11989;DHT22;6054;50.966;7.094;2022-09-09T01:00:57;26.00;49.70
11989;DHT22;6054;50.966;7.094;2022-09-09T01:03:34;26.00;50.00
11989;DHT22;6054;50.966;7.094;2022-09-09T01:06:04;26.00;50.10
11989;DHT22;6054;50.966;7.094;2022-09-09T01:08:43;26.20;50.80
11989;DHT22;6054;50.966;7.094;2022-09-09T01:11:20;26.00;50.30
11989;DHT22;6054;50.966;7.094;2022-09-09T01:13:53;25.90;50.00
11989;DHT22;6054;50.966;7.094;2022-09-09T01:16:24;25.90;49.80
11989;DHT22;6054;50.966;7.094;2022-09-09T01:18:54;26.10;49.50
11989;DHT22;6054;50.966;7.094;2022-09-09T01:21:31;25.90;50.20
11989;DHT22;6054;50.966;7.094;2022-09-09T01:24:12;26.00;50.10
11989;DHT22;6054;50.966;7.094;2022-09-09T01:26:47;26.00;50.20
11989;DHT22;6054;50.966;7.094;2022-09-09T01:29:17;25.90;49.60
11989;DHT22;6054;50.966;7.094;2022-09-09T01:31:53;25.90;50.00
11989;DHT22;6054;50.966;7.094;2022-09-09T01:34:21;25.80;49.90
11989;DHT22;6054;50.966;7.094;2022-09-09T01:36:54;26.00;50.10
11989;DHT22;6054;50.966;7.094;2022-09-09T01:39:23;25.80;50.10
11989;DHT22;6054;50.966;7.094;2022-09-09T01:41:51;26.00;49.00
11989;DHT22;6054;50.966;7.094;2022-09-09T01:44:19;25.80;49.40
11989;DHT22;6054;50.966;7.094;2022-09-09T01:46:46;26.10;49.70
11989;DHT22;6054;50.966;7.094;2022-09-09T01:49:13;25.90;48.70
11989;DHT22;6054;50.966;7.094;2022-09-09T01:51:41;25.90;49.40
11989;DHT22;6054;50.966;7.094;2022-09-09T01:54:10;25.70;50.20
11989;DHT22;6054;50.966;7.094;2022-09-09T01:56:43;25.70;49.30
11989;DHT22;6054;50.966;7.094;2022-09-09T01:59:29;25.70;50.20
11989;DHT22;6054;50.966;7.094;2022-09-09T02:02:09;25.70;50.30
11989;DHT22;6054;50.966;7.094;2022-09-09T02:04:48;25.60;50.10
11989;DHT22;6054;50.966;7.094;2022-09-09T02:07:32;25.90;49.90
11989;DHT22;6054;50.966;7.094;2022-09-09T02:10:05;25.60;50.50
11989;DHT22;6054;50.966;7.094;2022-09-09T02:12:36;25.60;49.90
11989;DHT22;6054;50.966;7.094;2022-09-09T02:15:13;25.60;50.30
11989;DHT22;6054;50.966;7.094;2022-09-09T02:17:41;25.70;50.00
11989;DHT22;6054;50.966;7.094;2022-09-09T02:20:12;25.60;50.20
11989;DHT22;6054;50.966;7.094;2022-09-09T02:22:41;25.60;50.50
11989;DHT22;6054;50.966;7.094;2022-09-09T02:25:11;25.90;50.60
11989;DHT22;6054;50.966;7.094;2022-09-09T02:27:39;25.60;50.20
11989;DHT22;6054;50.966;7.094;2022-09-09T02:30:10;25.60;50.10
11989;DHT22;6054;50.966;7.094;2022-09-09T02:32:38;25.60;50.50
11989;DHT22;6054;50.966;7.094;2022-09-09T02:35:09;25.60;50.40
11989;DHT22;6054;50.966;7.094;2022-09-09T02:37:39;25.60;50.50
11989;DHT22;6054;50.966;7.094;2022-09-09T02:40:09;25.60;50.50
11989;DHT22;6054;50.966;7.094;2022-09-09T02:42:39;25.60;50.50
11989;DHT22;6054;50.966;7.094;2022-09-09T02:45:09;25.60;50.30
11989;DHT22;6054;50.966;7.094;2022-09-09T02:47:40;25.60;50.50
11989;DHT22;6054;50.966;7.094;2022-09-09T02:50:13;25.60;50.20
11989;DHT22;6054;50.966;7.094;2022-09-09T02:52:50;25.60;50.40
11989;DHT22;6054;50.966;7.094;2022-09-09T02:55:24;25.80;50.50
11989;DHT22;6054;50.966;7.094;2022-09-09T02:57:57;25.60;50.30
11989;DHT22;6054;50.966;7.094;2022-09-09T03:00:27;25.60;50.30
11989;DHT22;6054;50.966;7.094;2022-09-09T03:02:54;25.50;50.30
11989;DHT22;6054;50.966;7.094;2022-09-09T03:05:21;25.70;49.60
11989;DHT22;6054;50.966;7.094;2022-09-09T03:07:49;25.70;49.40
11989;DHT22;6054;50.966;7.094;2022-09-09T03:10:16;25.50;49.70
11989;DHT22;6054;50.966;7.094;2022-09-09T03:12:43;25.60;50.10
11989;DHT22;6054;50.966;7.094;2022-09-09T03:15:10;25.50;50.20
11989;DHT22;6054;50.966;7.094;2022-09-09T03:17:43;25.40;49.70
11989;DHT22;6054;50.966;7.094;2022-09-09T03:20:12;25.70;50.00
11989;DHT22;6054;50.966;7.094;2022-09-09T03:22:39;25.50;49.30
11989;DHT22;6054;50.966;7.094;2022-09-09T03:25:07;25.50;50.50
11989;DHT22;6054;50.966;7.094;2022-09-09T03:27:34;25.50;50.50
11989;DHT22;6054;50.966;7.094;2022-09-09T03:30:00;25.40;50.00
11989;DHT22;6054;50.966;7.094;2022-09-09T03:32:29;25.50;49.30
11989;DHT22;6054;50.966;7.094;2022-09-09T03:34:58;25.70;50.30
11989;DHT22;6054;50.966;7.094;2022-09-09T03:37:24;25.50;50.20
11989;DHT22;6054;50.966;7.094;2022-09-09T03:39:51;25.60;50.50
11989;DHT22;6054;50.966;7.094;2022-09-09T03:42:20;25.50;50.30
11989;DHT22;6054;50.966;7.094;2022-09-09T03:44:47;25.50;49.20
11989;DHT22;6054;50.966;7.094;2022-09-09T03:47:15;25.70;50.10
11989;DHT22;6054;50.966;7.094;2022-09-09T03:49:42;25.40;50.70
11989;DHT22;6054;50.966;7.094;2022-09-09T03:52:11;25.40;49.80
11989;DHT22;6054;50.966;7.094;2022-09-09T03:54:38;25.70;50.30
11989;DHT22;6054;50.966;7.094;2022-09-09T03:57:04;25.40;49.50
11989;DHT22;6054;50.966;7.094;2022-09-09T03:59:31;25.40;48.20
11989;DHT22;6054;50.966;7.094;2022-09-09T04:01:58;25.40;50.00
11989;DHT22;6054;50.966;7.094;2022-09-09T04:04:25;25.50;49.90
11989;DHT22;6054;50.966;7.094;2022-09-09T04:06:52;25.30;50.30
11989;DHT22;6054;50.966;7.094;2022-09-09T04:09:21;25.40;50.50
11989;DHT22;6054;50.966;7.094;2022-09-09T04:11:48;25.50;50.50
11989;DHT22;6054;50.966;7.094;2022-09-09T04:14:15;25.60;50.20
11989;DHT22;6054;50.966;7.094;2022-09-09T04:16:51;25.30;49.60
11989;DHT22;6054;50.966;7.094;2022-09-09T04:19:31;25.60;49.60
11989;DHT22;6054;50.966;7.094;2022-09-09T04:21:58;25.60;49.80
11989;DHT22;6054;50.966;7.094;2022-09-09T04:24:26;25.30;49.10
11989;DHT22;6054;50.966;7.094;2022-09-09T04:26:54;25.60;49.90
11989;DHT22;6054;50.966;7.094;2022-09-09T04:29:21;25.30;49.00
11989;DHT22;6054;50.966;7.094;2022-09-09T04:31:54;25.60;49.20
11989;DHT22;6054;50.966;7.094;2022-09-09T04:45:16;25.30;48.20
11989;DHT22;6054;50.966;7.094;2022-09-09T04:47:44;25.40;50.00
11989;DHT22;6054;50.966;7.094;2022-09-09T04:50:15;25.40;48.70
11989;DHT22;6054;50.966;7.094;2022-09-09T04:52:42;25.30;49.80
11989;DHT22;6054;50.966;7.094;2022-09-09T04:55:09;25.40;49.10
11989;DHT22;6054;50.966;7.094;2022-09-09T04:57:36;25.30;50.10
11989;DHT22;6054;50.966;7.094;2022-09-09T05:00:03;25.40;49.70
11989;DHT22;6054;50.966;7.094;2022-09-09T05:02:32;25.30;50.50
11989;DHT22;6054;50.966;7.094;2022-09-09T05:04:59;25.50;49.00
11989;DHT22;6054;50.966;7.094;2022-09-09T05:07:27;25.30;47.90
11989;DHT22;6054;50.966;7.094;2022-09-09T05:09:57;25.30;49.40
11989;DHT22;6054;50.966;7.094;2022-09-09T05:12:24;25.30;50.70
11989;DHT22;6054;50.966;7.094;2022-09-09T05:14:52;25.30;50.40
11989;DHT22;6054;50.966;7.094;2022-09-09T05:17:19;25.20;50.10
11989;DHT22;6054;50.966;7.094;2022-09-09T05:19:53;25.20;50.30
11989;DHT22;6054;50.966;7.094;2022-09-09T05:22:20;25.20;48.80
11989;DHT22;6054;50.966;7.094;2022-09-09T05:24:48;25.20;49.70
11989;DHT22;6054;50.966;7.094;2022-09-09T05:27:16;25.30;49.90
11989;DHT22;6054;50.966;7.094;2022-09-09T05:29:43;25.20;50.70
11989;DHT22;6054;50.966;7.094;2022-09-09T05:32:10;25.10;50.80
11989;DHT22;6054;50.966;7.094;2022-09-09T05:34:37;25.10;50.50
11989;DHT22;6054;50.966;7.094;2022-09-09T05:37:06;25.10;51.00
11989;DHT22;6054;50.966;7.094;2022-09-09T05:39:33;25.10;51.90
11989;DHT22;6054;50.966;7.094;2022-09-09T05:42:01;25.10;51.70
11989;DHT22;6054;50.966;7.094;2022-09-09T05:44:30;24.90;52.90
11989;DHT22;6054;50.966;7.094;2022-09-09T05:46:57;24.70;52.70
11989;DHT22;6054;50.966;7.094;2022-09-09T05:49:24;24.60;53.00
11989;DHT22;6054;50.966;7.094;2022-09-09T05:51:51;24.40;53.20
11989;DHT22;6054;50.966;7.094;2022-09-09T05:54:19;24.50;53.70
11989;DHT22;6054;50.966;7.094;2022-09-09T05:56:46;24.30;53.80
11989;DHT22;6054;50.966;7.094;2022-09-09T05:59:16;24.30;54.00
11989;DHT22;6054;50.966;7.094;2022-09-09T06:01:43;24.20;54.20
11989;DHT22;6054;50.966;7.094;2022-09-09T06:04:10;24.20;54.20
11989;DHT22;6054;50.966;7.094;2022-09-09T06:06:38;24.30;54.60
11989;DHT22;6054;50.966;7.094;2022-09-09T06:09:06;24.20;54.70
11989;DHT22;6054;50.966;7.094;2022-09-09T06:11:37;24.10;54.70
11989;DHT22;6054;50.966;7.094;2022-09-09T06:14:05;24.30;55.00
11989;DHT22;6054;50.966;7.094;2022-09-09T06:16:33;24.10;54.90
11989;DHT22;6054;50.966;7.094;2022-09-09T06:19:00;24.10;54.70
11989;DHT22;6054;50.966;7.094;2022-09-09T06:21:28;24.10;55.00
11989;DHT22;6054;50.966;7.094;2022-09-09T06:23:56;24.10;55.20
11989;DHT22;6054;50.966;7.094;2022-09-09T06:26:24;24.30;54.90
11989;DHT22;6054;50.966;7.094;2022-09-09T06:28:54;24.20;55.10
11989;DHT22;6054;50.966;7.094;2022-09-09T06:31:24;24.10;54.90
11989;DHT22;6054;50.966;7.094;2022-09-09T06:33:52;24.10;55.10
11989;DHT22;6054;50.966;7.094;2022-09-09T06:36:21;24.10;55.10
11989;DHT22;6054;50.966;7.094;2022-09-09T06:38:48;24.10;55.00
11989;DHT22;6054;50.966;7.094;2022-09-09T06:41:17;24.20;54.80
11989;DHT22;6054;50.966;7.094;2022-09-09T06:43:44;24.20;55.20
11989;DHT22;6054;50.966;7.094;2022-09-09T06:46:14;24.20;54.80
11989;DHT22;6054;50.966;7.094;2022-09-09T06:48:42;24.20;55.30
11989;DHT22;6054;50.966;7.094;2022-09-09T06:51:11;24.30;55.50
11989;DHT22;6054;50.966;7.094;2022-09-09T06:53:40;24.30;55.70
11989;DHT22;6054;50.966;7.094;2022-09-09T06:56:19;24.50;55.80
11989;DHT22;6054;50.966;7.094;2022-09-09T06:58:47;24.50;55.70
11989;DHT22;6054;50.966;7.094;2022-09-09T07:01:17;24.60;55.50
11989;DHT22;6054;50.966;7.094;2022-09-09T07:03:46;24.70;55.10
11989;DHT22;6054;50.966;7.094;2022-09-09T07:06:14;24.60;54.70
11989;DHT22;6054;50.966;7.094;2022-09-09T07:08:42;24.70;54.70
11989;DHT22;6054;50.966;7.094;2022-09-09T07:11:09;24.80;54.40
11989;DHT22;6054;50.966;7.094;2022-09-09T07:13:36;24.90;54.20
11989;DHT22;6054;50.966;7.094;2022-09-09T07:16:04;24.90;53.90
11989;DHT22;6054;50.966;7.094;2022-09-09T07:18:34;25.00;54.30
11989;DHT22;6054;50.966;7.094;2022-09-09T07:21:01;25.20;54.20
11989;DHT22;6054;50.966;7.094;2022-09-09T07:23:29;25.10;53.40
11989;DHT22;6054;50.966;7.094;2022-09-09T07:25:56;25.20;52.70
11989;DHT22;6054;50.966;7.094;2022-09-09T07:28:41;25.20;53.50
11989;DHT22;6054;50.966;7.094;2022-09-09T07:31:34;25.30;53.50
11989;DHT22;6054;50.966;7.094;2022-09-09T07:34:03;25.40;53.10
11989;DHT22;6054;50.966;7.094;2022-09-09T07:36:32;25.30;52.90
11989;DHT22;6054;50.966;7.094;2022-09-09T07:39:01;25.40;53.00
11989;DHT22;6054;50.966;7.094;2022-09-09T07:41:31;25.50;52.70
11989;DHT22;6054;50.966;7.094;2022-09-09T07:43:59;25.50;51.50
11989;DHT22;6054;50.966;7.094;2022-09-09T07:46:29;25.50;51.20
11989;DHT22;6054;50.966;7.094;2022-09-09T07:48:56;25.70;50.60
11989;DHT22;6054;50.966;7.094;2022-09-09T07:51:26;25.50;50.40
11989;DHT22;6054;50.966;7.094;2022-09-09T07:53:55;25.60;50.60
11989;DHT22;6054;50.966;7.094;2022-09-09T07:56:23;25.60;49.80
11989;DHT22;6054;50.966;7.094;2022-09-09T07:58:51;25.80;49.60
11989;DHT22;6054;50.966;7.094;2022-09-09T08:01:20;25.60;49.50
11989;DHT22;6054;50.966;7.094;2022-09-09T08:03:52;25.50;49.40
11989;DHT22;6054;50.966;7.094;2022-09-09T08:06:20;25.50;49.30
11989;DHT22;6054;50.966;7.094;2022-09-09T08:08:50;25.50;48.70
11989;DHT22;6054;50.966;7.094;2022-09-09T08:11:17;25.70;49.50
11989;DHT22;6054;50.966;7.094;2022-09-09T08:13:44;25.50;48.90
11989;DHT22;6054;50.966;7.094;2022-09-09T08:16:12;25.60;49.00
11989;DHT22;6054;50.966;7.094;2022-09-09T08:18:39;25.50;49.10
11989;DHT22;6054;50.966;7.094;2022-09-09T08:21:08;25.60;48.70
11989;DHT22;6054;50.966;7.094;2022-09-09T08:23:37;25.60;49.10
11989;DHT22;6054;50.966;7.094;2022-09-09T08:26:08;25.60;48.20
11989;DHT22;6054;50.966;7.094;2022-09-09T08:28:35;25.50;48.60
11989;DHT22;6054;50.966;7.094;2022-09-09T08:31:11;25.50;48.30
11989;DHT22;6054;50.966;7.094;2022-09-09T08:33:39;25.50;48.30
11989;DHT22;6054;50.966;7.094;2022-09-09T08:36:08;25.60;47.80
11989;DHT22;6054;50.966;7.094;2022-09-09T08:38:36;25.50;47.80
11989;DHT22;6054;50.966;7.094;2022-09-09T08:44:07;25.50;47.50
11989;DHT22;6054;50.966;7.094;2022-09-09T08:46:42;25.50;47.10
11989;DHT22;6054;50.966;7.094;2022-09-09T08:49:23;25.50;46.80
11989;DHT22;6054;50.966;7.094;2022-09-09T08:51:58;25.60;46.50
11989;DHT22;6054;50.966;7.094;2022-09-09T08:54:27;25.40;46.00
11989;DHT22;6054;50.966;7.094;2022-09-09T08:56:58;25.50;46.50
11989;DHT22;6054;50.966;7.094;2022-09-09T08:59:26;25.80;45.90
11989;DHT22;6054;50.966;7.094;2022-09-09T09:02:02;25.50;45.60
11989;DHT22;6054;50.966;7.094;2022-09-09T09:04:41;25.60;46.20
11989;DHT22;6054;50.966;7.094;2022-09-09T09:07:18;25.60;46.50
11989;DHT22;6054;50.966;7.094;2022-09-09T09:09:57;25.60;46.60
11989;DHT22;6054;50.966;7.094;2022-09-09T09:12:32;25.70;46.00
11989;DHT22;6054;50.966;7.094;2022-09-09T09:15:11;25.70;45.30
11989;DHT22;6054;50.966;7.094;2022-09-09T09:17:41;25.80;45.30
11989;DHT22;6054;50.966;7.094;2022-09-09T09:20:12;25.70;45.10
11989;DHT22;6054;50.966;7.094;2022-09-09T09:22:46;25.80;45.20
11989;DHT22;6054;50.966;7.094;2022-09-09T09:25:17;26.10;44.70
11989;DHT22;6054;50.966;7.094;2022-09-09T09:27:49;26.00;44.90
11989;DHT22;6054;50.966;7.094;2022-09-09T09:30:20;26.10;44.80
11989;DHT22;6054;50.966;7.094;2022-09-09T09:32:54;26.20;44.60
11989;DHT22;6054;50.966;7.094;2022-09-09T09:35:21;26.30;44.60
11989;DHT22;6054;50.966;7.094;2022-09-09T09:37:49;26.40;44.40
11989;DHT22;6054;50.966;7.094;2022-09-09T09:40:18;26.50;44.10
11989;DHT22;6054;50.966;7.094;2022-09-09T09:42:51;26.70;44.40
11989;DHT22;6054;50.966;7.094;2022-09-09T09:45:27;26.60;44.20
11989;DHT22;6054;50.966;7.094;2022-09-09T09:48:01;26.50;43.70
11989;DHT22;6054;50.966;7.094;2022-09-09T09:50:30;26.60;43.60
11989;DHT22;6054;50.966;7.094;2022-09-09T09:52:59;26.40;43.60
11989;DHT22;6054;50.966;7.094;2022-09-09T09:55:28;26.40;43.80
11989;DHT22;6054;50.966;7.094;2022-09-09T09:58:01;26.60;43.80
11989;DHT22;6054;50.966;7.094;2022-09-09T10:00:30;26.60;44.00
11989;DHT22;6054;50.966;7.094;2022-09-09T10:02:57;26.40;43.60
11989;DHT22;6054;50.966;7.094;2022-09-09T10:05:27;26.40;43.40
11989;DHT22;6054;50.966;7.094;2022-09-09T10:08:02;26.30;43.30
11989;DHT22;6054;50.966;7.094;2022-09-09T10:10:39;26.20;43.50
11989;DHT22;6054;50.966;7.094;2022-09-09T10:13:11;26.20;43.70
11989;DHT22;6054;50.966;7.094;2022-09-09T10:15:46;26.30;43.80
11989;DHT22;6054;50.966;7.094;2022-09-09T10:18:29;26.60;43.70
11989;DHT22;6054;50.966;7.094;2022-09-09T10:21:06;26.30;44.10
11989;DHT22;6054;50.966;7.094;2022-09-09T10:23:50;26.40;44.00
11989;DHT22;6054;50.966;7.094;2022-09-09T10:26:29;26.40;44.10
11989;DHT22;6054;50.966;7.094;2022-09-09T10:32:05;26.60;43.40
11989;DHT22;6054;50.966;7.094;2022-09-09T10:34:49;26.50;43.10
11989;DHT22;6054;50.966;7.094;2022-09-09T10:37:25;26.60;43.40
11989;DHT22;6054;50.966;7.094;2022-09-09T10:40:02;26.60;43.10
11989;DHT22;6054;50.966;7.094;2022-09-09T10:42:31;26.60;42.40
11989;DHT22;6054;50.966;7.094;2022-09-09T10:45:07;26.60;41.90
11989;DHT22;6054;50.966;7.094;2022-09-09T10:47:54;26.50;42.40
11989;DHT22;6054;50.966;7.094;2022-09-09T10:50:35;26.50;42.30
11989;DHT22;6054;50.966;7.094;2022-09-09T10:53:12;26.50;42.50
11989;DHT22;6054;50.966;7.094;2022-09-09T10:55:42;26.50;42.40
11989;DHT22;6054;50.966;7.094;2022-09-09T10:58:14;26.60;42.30
11989;DHT22;6054;50.966;7.094;2022-09-09T11:00:46;26.50;42.00
11989;DHT22;6054;50.966;7.094;2022-09-09T11:03:20;26.60;41.00
11989;DHT22;6054;50.966;7.094;2022-09-09T11:05:51;26.50;41.90
11989;DHT22;6054;50.966;7.094;2022-09-09T11:08:21;26.50;41.90
11989;DHT22;6054;50.966;7.094;2022-09-09T11:10:53;26.60;41.50
11989;DHT22;6054;50.966;7.094;2022-09-09T11:13:26;26.60;42.30
11989;DHT22;6054;50.966;7.094;2022-09-09T11:16:01;26.70;42.20
11989;DHT22;6054;50.966;7.094;2022-09-09T11:18:32;26.80;42.00
11989;DHT22;6054;50.966;7.094;2022-09-09T11:21:03;26.80;41.30
11989;DHT22;6054;50.966;7.094;2022-09-09T11:23:40;26.80;42.40
11989;DHT22;6054;50.966;7.094;2022-09-09T11:26:14;26.80;42.10
11989;DHT22;6054;50.966;7.094;2022-09-09T11:28:55;26.90;41.50
11989;DHT22;6054;50.966;7.094;2022-09-09T11:31:42;26.90;41.40
11989;DHT22;6054;50.966;7.094;2022-09-09T11:34:22;27.00;41.00
11989;DHT22;6054;50.966;7.094;2022-09-09T11:37:08;27.10;41.30
11989;DHT22;6054;50.966;7.094;2022-09-09T11:39:48;27.10;40.80
11989;DHT22;6054;50.966;7.094;2022-09-09T11:42:19;27.10;40.90
11989;DHT22;6054;50.966;7.094;2022-09-09T11:44:46;27.30;40.70
11989;DHT22;6054;50.966;7.094;2022-09-09T11:47:23;27.10;39.90
11989;DHT22;6054;50.966;7.094;2022-09-09T11:50:07;27.10;40.20
11989;DHT22;6054;50.966;7.094;2022-09-09T11:52:37;27.20;40.30
11989;DHT22;6054;50.966;7.094;2022-09-09T11:55:10;27.20;40.30
11989;DHT22;6054;50.966;7.094;2022-09-09T11:57:39;27.30;40.20
11989;DHT22;6054;50.966;7.094;2022-09-09T12:02:49;27.30;40.30
11989;DHT22;6054;50.966;7.094;2022-09-09T12:05:17;27.30;39.90
11989;DHT22;6054;50.966;7.094;2022-09-09T12:07:50;27.40;39.80
11989;DHT22;6054;50.966;7.094;2022-09-09T12:10:22;27.50;40.20
11989;DHT22;6054;50.966;7.094;2022-09-09T12:12:50;27.40;40.30
11989;DHT22;6054;50.966;7.094;2022-09-09T12:15:23;27.50;40.00
11989;DHT22;6054;50.966;7.094;2022-09-09T12:17:52;27.50;40.00
11989;DHT22;6054;50.966;7.094;2022-09-09T12:20:23;27.50;39.70
11989;DHT22;6054;50.966;7.094;2022-09-09T12:25:57;27.50;39.60
11989;DHT22;6054;50.966;7.094;2022-09-09T12:28:31;27.60;39.70
11989;DHT22;6054;50.966;7.094;2022-09-09T12:31:04;27.70;39.70
11989;DHT22;6054;50.966;7.094;2022-09-09T12:33:35;27.60;39.70
11989;DHT22;6054;50.966;7.094;2022-09-09T12:36:05;27.60;39.80
11989;DHT22;6054;50.966;7.094;2022-09-09T12:38:40;27.60;39.40
11989;DHT22;6054;50.966;7.094;2022-09-09T12:41:18;27.60;39.40
11989;DHT22;6054;50.966;7.094;2022-09-09T12:43:45;27.60;39.60
11989;DHT22;6054;50.966;7.094;2022-09-09T12:46:20;27.70;39.00
11989;DHT22;6054;50.966;7.094;2022-09-09T12:48:49;27.70;39.40
11989;DHT22;6054;50.966;7.094;2022-09-09T12:51:24;27.90;39.10
11989;DHT22;6054;50.966;7.094;2022-09-09T12:53:52;27.70;39.30
11989;DHT22;6054;50.966;7.094;2022-09-09T12:56:21;28.00;39.00
11989;DHT22;6054;50.966;7.094;2022-09-09T12:58:51;27.70;39.30
11989;DHT22;6054;50.966;7.094;2022-09-09T13:01:21;27.70;39.40
11989;DHT22;6054;50.966;7.094;2022-09-09T13:03:48;27.80;39.30
11989;DHT22;6054;50.966;7.094;2022-09-09T13:06:21;27.80;38.30
11989;DHT22;6054;50.966;7.094;2022-09-09T13:08:49;27.80;38.90
11989;DHT22;6054;50.966;7.094;2022-09-09T13:11:18;27.90;39.00
11989;DHT22;6054;50.966;7.094;2022-09-09T13:13:51;28.00;39.40
11989;DHT22;6054;50.966;7.094;2022-09-09T13:16:20;27.90;39.00
11989;DHT22;6054;50.966;7.094;2022-09-09T13:18:48;27.80;38.40
11989;DHT22;6054;50.966;7.094;2022-09-09T13:21:16;27.90;38.50
11989;DHT22;6054;50.966;7.094;2022-09-09T13:23:49;28.00;38.90
11989;DHT22;6054;50.966;7.094;2022-09-09T13:26:24;28.00;39.40
11989;DHT22;6054;50.966;7.094;2022-09-09T13:28:52;28.20;39.40
11989;DHT22;6054;50.966;7.094;2022-09-09T13:31:22;28.10;39.70
11989;DHT22;6054;50.966;7.094;2022-09-09T13:33:49;27.80;38.90
11989;DHT22;6054;50.966;7.094;2022-09-09T13:36:27;28.10;38.80
11989;DHT22;6054;50.966;7.094;2022-09-09T13:38:59;28.20;39.40
11989;DHT22;6054;50.966;7.094;2022-09-09T13:41:30;28.20;39.50
11989;DHT22;6054;50.966;7.094;2022-09-09T13:43:59;28.30;40.20
11989;DHT22;6054;50.966;7.094;2022-09-09T13:46:31;28.30;39.10
11989;DHT22;6054;50.966;7.094;2022-09-09T13:49:00;28.30;38.90
11989;DHT22;6054;50.966;7.094;2022-09-09T13:51:33;28.30;38.70
11989;DHT22;6054;50.966;7.094;2022-09-09T13:54:04;28.40;38.80
11989;DHT22;6054;50.966;7.094;2022-09-09T13:56:31;28.30;38.80
11989;DHT22;6054;50.966;7.094;2022-09-09T13:58:58;28.30;38.50
11989;DHT22;6054;50.966;7.094;2022-09-09T14:01:25;28.30;39.20
11989;DHT22;6054;50.966;7.094;2022-09-09T14:03:53;28.30;38.70
11989;DHT22;6054;50.966;7.094;2022-09-09T14:06:19;28.30;39.10
11989;DHT22;6054;50.966;7.094;2022-09-09T14:08:47;28.50;39.80
11989;DHT22;6054;50.966;7.094;2022-09-09T14:11:16;28.50;39.30
11989;DHT22;6054;50.966;7.094;2022-09-09T14:13:43;28.60;39.30
11989;DHT22;6054;50.966;7.094;2022-09-09T14:16:11;28.60;38.50
11989;DHT22;6054;50.966;7.094;2022-09-09T14:18:39;28.60;38.40
11989;DHT22;6054;50.966;7.094;2022-09-09T14:21:06;28.60;38.50
11989;DHT22;6054;50.966;7.094;2022-09-09T14:23:34;28.70;38.80
11989;DHT22;6054;50.966;7.094;2022-09-09T14:26:01;28.70;38.40
11989;DHT22;6054;50.966;7.094;2022-09-09T14:28:33;28.70;37.10
11989;DHT22;6054;50.966;7.094;2022-09-09T14:31:00;28.60;38.90
11989;DHT22;6054;50.966;7.094;2022-09-09T14:33:28;28.60;38.70
11989;DHT22;6054;50.966;7.094;2022-09-09T14:35:56;28.60;38.50
11989;DHT22;6054;50.966;7.094;2022-09-09T14:38:23;28.80;39.10
11989;DHT22;6054;50.966;7.094;2022-09-09T14:40:51;28.50;39.10
11989;DHT22;6054;50.966;7.094;2022-09-09T14:43:18;28.70;39.00
11989;DHT22;6054;50.966;7.094;2022-09-09T14:45:47;28.50;38.60
11989;DHT22;6054;50.966;7.094;2022-09-09T14:48:16;28.60;39.00
11989;DHT22;6054;50.966;7.094;2022-09-09T14:50:43;28.70;39.30
11989;DHT22;6054;50.966;7.094;2022-09-09T14:53:10;28.60;39.50
11989;DHT22;6054;50.966;7.094;2022-09-09T14:55:38;28.50;39.70
11989;DHT22;6054;50.966;7.094;2022-09-09T14:58:05;28.50;40.10
11989;DHT22;6054;50.966;7.094;2022-09-09T15:00:32;28.40;40.80
11989;DHT22;6054;50.966;7.094;2022-09-09T15:03:00;28.30;42.50
11989;DHT22;6054;50.966;7.094;2022-09-09T15:05:27;28.30;44.20
11989;DHT22;6054;50.966;7.094;2022-09-09T15:07:54;28.10;45.40
11989;DHT22;6054;50.966;7.094;2022-09-09T15:10:22;27.70;46.60
11989;DHT22;6054;50.966;7.094;2022-09-09T15:12:48;27.60;47.90
11989;DHT22;6054;50.966;7.094;2022-09-09T15:15:15;27.20;48.30
11989;DHT22;6054;50.966;7.094;2022-09-09T15:17:42;27.10;49.20
11989;DHT22;6054;50.966;7.094;2022-09-09T15:20:11;26.90;50.20
11989;DHT22;6054;50.966;7.094;2022-09-09T15:22:37;26.90;51.20
11989;DHT22;6054;50.966;7.094;2022-09-09T15:25:06;26.80;51.90
11989;DHT22;6054;50.966;7.094;2022-09-09T15:27:33;26.70;52.90
11989;DHT22;6054;50.966;7.094;2022-09-09T15:30:00;26.60;52.80
11989;DHT22;6054;50.966;7.094;2022-09-09T15:32:27;26.60;53.40
11989;DHT22;6054;50.966;7.094;2022-09-09T15:34:54;26.70;53.90
11989;DHT22;6054;50.966;7.094;2022-09-09T15:37:22;26.60;54.10
11989;DHT22;6054;50.966;7.094;2022-09-09T15:39:49;26.60;54.70
11989;DHT22;6054;50.966;7.094;2022-09-09T15:42:16;26.60;54.50
11989;DHT22;6054;50.966;7.094;2022-09-09T15:44:42;26.80;54.90
11989;DHT22;6054;50.966;7.094;2022-09-09T15:47:11;26.70;54.80
11989;DHT22;6054;50.966;7.094;2022-09-09T15:49:38;26.70;55.20
11989;DHT22;6054;50.966;7.094;2022-09-09T15:52:05;26.80;55.10
11989;DHT22;6054;50.966;7.094;2022-09-09T15:54:35;26.90;55.10
11989;DHT22;6054;50.966;7.094;2022-09-09T15:57:06;26.80;55.20
11989;DHT22;6054;50.966;7.094;2022-09-09T15:59:33;26.90;55.00
11989;DHT22;6054;50.966;7.094;2022-09-09T16:02:00;26.70;54.60
11989;DHT22;6054;50.966;7.094;2022-09-09T16:04:28;26.70;54.20
11989;DHT22;6054;50.966;7.094;2022-09-09T16:06:56;26.60;53.40
11989;DHT22;6054;50.966;7.094;2022-09-09T16:09:36;26.60;52.50
11989;DHT22;6054;50.966;7.094;2022-09-09T16:12:04;26.50;52.30
11989;DHT22;6054;50.966;7.094;2022-09-09T16:14:36;26.50;52.30
11989;DHT22;6054;50.966;7.094;2022-09-09T16:17:06;26.40;52.40
11989;DHT22;6054;50.966;7.094;2022-09-09T16:19:34;26.30;52.60
11989;DHT22;6054;50.966;7.094;2022-09-09T16:22:05;26.30;52.70
11989;DHT22;6054;50.966;7.094;2022-09-09T16:24:33;26.30;52.80
11989;DHT22;6054;50.966;7.094;2022-09-09T16:27:02;26.20;52.80
11989;DHT22;6054;50.966;7.094;2022-09-09T16:29:37;26.20;53.00